Time;durP1;ratioP1;P1;durP2;ratioP2;P2;SDS_P1;SDS_P2;PMS_P1;PMS_P2;Temp;Humidity;BMP_temperature;BMP_pressure;BME280_temperature;BME280_humidity;BME280_pressure;Samples;Min_cycle;Max_cycle;Signal;HPM_P1;HPM_P2
2022/04/05 00:00:46;;;;;;;17.40;1.92;;;3.80;68.40;;;;;;4118796;28;20038;-85
2022/04/05 00:02:46;;;;;;;17.73;2.28;;;3.80;68.30;;;;;;4113067;28;20031;-85
2022/04/05 00:04:47;;;;;;;19.10;1.80;;;3.80;68.20;;;;;;4117781;28;20022;-85
2022/04/05 00:06:48;;;;;;;15.43;2.58;;;3.80;68.20;;;;;;4120016;28;20030;-85
2022/04/05 00:08:48;;;;;;;24.58;2.33;;;3.70;68.00;;;;;;4117730;28;20033;-85
2022/04/05 00:10:49;;;;;;;16.10;1.90;;;3.70;68.10;;;;;;4118155;28;20045;-85
2022/04/05 00:12:50;;;;;;;9.00;1.55;;;3.70;68.20;;;;;;4110914;28;20022;-85
2022/04/05 00:14:50;;;;;;;19.58;1.88;;;3.70;68.20;;;;;;4116242;28;20046;-85
2022/04/05 00:16:51;;;;;;;11.88;1.98;;;3.70;68.10;;;;;;4116506;28;20045;-84
2022/04/05 00:18:52;;;;;;;9.25;1.35;;;3.70;68.00;;;;;;4117324;28;20030;-85
2022/04/05 00:20:53;;;;;;;15.55;1.80;;;3.70;67.90;;;;;;4114662;28;20034;-86
2022/04/05 00:22:54;;;;;;;16.73;2.47;;;3.60;67.90;;;;;;4114021;28;20018;-87
2022/04/05 00:24:55;;;;;;;16.70;1.67;;;3.70;67.80;;;;;;4114935;28;20449;-85
2022/04/05 00:26:56;;;;;;;19.73;2.33;;;3.60;67.50;;;;;;4117092;28;20033;-85
2022/04/05 00:28:57;;;;;;;21.67;2.35;;;3.60;67.60;;;;;;4114685;28;20033;-86
2022/04/05 00:30:58;;;;;;;15.73;1.98;;;3.70;67.60;;;;;;4113925;28;20030;-86
2022/04/05 00:32:59;;;;;;;10.43;1.40;;;3.60;67.50;;;;;;4117239;28;20101;-85
2022/04/05 00:34:59;;;;;;;19.85;1.83;;;3.60;67.40;;;;;;4120137;28;20101;-85
2022/04/05 00:37:00;;;;;;;17.52;1.98;;;3.60;67.40;;;;;;4116230;28;20674;-84
2022/04/05 00:39:01;;;;;;;23.17;2.00;;;3.60;67.40;;;;;;4117809;28;20177;-88
2022/04/05 00:41:01;;;;;;;15.43;1.73;;;3.60;67.30;;;;;;4119481;28;20031;-85
2022/04/05 00:43:05;;;;;;;18.58;2.15;;;3.60;67.30;;;;;;4122266;28;20632;-85
2022/04/05 00:45:07;;;;;;;12.95;1.95;;;3.60;67.30;;;;;;4123100;28;20031;-85
2022/04/05 00:47:16;;;;;;;10.52;1.95;;;3.50;67.10;;;;;;4121947;28;20041;-83
2022/04/05 00:49:29;;;;;;;16.30;1.92;;;3.50;67.10;;;;;;4119113;28;20030;-86
2022/04/05 00:51:30;;;;;;;18.20;2.17;;;3.50;67.10;;;;;;4108664;28;20165;-84
2022/04/05 00:53:32;;;;;;;19.88;2.13;;;3.50;67.00;;;;;;4110158;28;20102;-87
2022/04/05 00:55:33;;;;;;;16.63;2.05;;;3.50;67.00;;;;;;4119417;28;20033;-85
2022/04/05 00:57:35;;;;;;;16.05;2.33;;;3.50;67.00;;;;;;4119543;28;20031;-86
2022/04/05 00:59:38;;;;;;;18.80;2.28;;;3.50;67.10;;;;;;4116942;28;20018;-86
2022/04/05 01:01:39;;;;;;;21.55;1.88;;;3.50;67.10;;;;;;4119081;28;20494;-85
2022/04/05 01:03:41;;;;;;;21.00;2.53;;;3.50;67.20;;;;;;4119267;28;20040;-86
2022/04/05 01:05:46;;;;;;;9.80;1.40;;;3.50;67.30;;;;;;4117889;28;20026;-85
2022/04/05 01:07:48;;;;;;;12.70;2.08;;;3.50;68.30;;;;;;4116438;28;20081;-85
2022/04/05 01:09:57;;;;;;;12.70;1.67;;;3.50;67.70;;;;;;4119143;28;20030;-87
2022/04/05 01:11:58;;;;;;;17.08;1.40;;;3.50;67.70;;;;;;4120877;28;20102;-86
2022/04/05 01:13:58;;;;;;;11.20;1.73;;;3.50;67.90;;;;;;4113672;28;20542;-86
2022/04/05 01:15:59;;;;;;;14.93;2.00;;;3.40;67.90;;;;;;4117568;28;20491;-87
2022/04/05 01:18:00;;;;;;;13.77;1.83;;;3.50;68.10;;;;;;4113348;28;20027;-86
2022/04/05 01:20:02;;;;;;;20.48;1.95;;;3.50;68.30;;;;;;4120621;28;20505;-87
2022/04/05 01:22:03;;;;;;;17.10;1.90;;;3.50;68.50;;;;;;4118963;28;20723;-86
2022/04/05 01:24:10;;;;;;;14.07;1.70;;;3.50;68.50;;;;;;4117205;28;20018;-87
2022/04/05 01:26:11;;;;;;;13.90;2.00;;;3.50;68.60;;;;;;4116320;28;20033;-86
2022/04/05 01:28:11;;;;;;;19.33;2.38;;;3.50;68.70;;;;;;4116383;28;20035;-86
2022/04/05 01:30:13;;;;;;;13.77;1.95;;;3.40;68.90;;;;;;4117586;28;20143;-87
2022/04/05 01:32:14;;;;;;;13.52;1.75;;;3.50;69.10;;;;;;4115332;28;20802;-87
2022/04/05 01:34:17;;;;;;;13.20;1.70;;;3.50;69.20;;;;;;4102530;28;20243;-87
2022/04/05 01:36:25;;;;;;;13.88;1.92;;;3.50;69.20;;;;;;4115786;28;20654;-86
2022/04/05 01:38:25;;;;;;;18.65;2.25;;;3.50;69.30;;;;;;4116596;28;20030;-87
2022/04/05 01:40:26;;;;;;;22.75;2.38;;;3.50;69.40;;;;;;4116387;28;20435;-86
2022/04/05 01:42:27;;;;;;;13.45;1.70;;;3.50;69.40;;;;;;4119073;28;20066;-86
2022/04/05 01:44:30;;;;;;;19.55;2.13;;;3.50;69.30;;;;;;4118502;28;20622;-86
2022/04/05 01:46:32;;;;;;;20.70;1.83;;;3.50;69.30;;;;;;4120318;28;20057;-86
2022/04/05 01:48:32;;;;;;;20.63;2.00;;;3.50;69.20;;;;;;4120285;28;20092;-86
2022/04/05 01:50:33;;;;;;;23.40;1.95;;;3.50;69.20;;;;;;4119203;28;20516;-85
2022/04/05 01:52:34;;;;;;;24.42;2.65;;;3.50;69.20;;;;;;4121244;28;20506;-85
2022/04/05 01:54:35;;;;;;;23.35;2.17;;;3.50;69.20;;;;;;4117409;28;20030;-86
2022/04/05 01:56:51;;;;;;;15.70;1.92;;;3.40;69.30;;;;;;4117152;28;20113;-86
2022/04/05 01:58:51;;;;;;;18.08;2.70;;;3.50;69.40;;;;;;4118117;28;20026;-87
2022/04/05 02:00:52;;;;;;;16.50;2.40;;;3.40;69.50;;;;;;4121340;28;20053;-85
2022/04/05 02:02:52;;;;;;;27.63;2.67;;;3.40;69.70;;;;;;4117538;28;20089;-84
2022/04/05 02:04:53;;;;;;;20.10;1.90;;;3.40;69.80;;;;;;4122407;28;20026;-86
2022/04/05 02:06:54;;;;;;;21.35;2.13;;;3.40;69.90;;;;;;4120441;28;20026;-85
2022/04/05 02:08:54;;;;;;;23.42;2.05;;;3.40;69.90;;;;;;4119628;28;20401;-86
2022/04/05 02:10:55;;;;;;;23.92;2.83;;;3.40;69.90;;;;;;4124584;28;20038;-85
2022/04/05 02:12:55;;;;;;;18.30;2.20;;;3.40;69.80;;;;;;4104281;28;20034;-86
2022/04/05 02:14:56;;;;;;;11.10;1.65;;;3.30;69.90;;;;;;4116301;28;20034;-86
2022/04/05 02:16:57;;;;;;;29.75;2.13;;;3.30;70.00;;;;;;4120877;28;20026;-85
2022/04/05 02:18:57;;;;;;;14.07;1.50;;;3.30;70.00;;;;;;4118655;28;20446;-85
2022/04/05 02:20:59;;;;;;;11.60;1.67;;;3.30;70.10;;;;;;4120563;28;20029;-86
2022/04/05 02:23:00;;;;;;;13.10;1.92;;;3.30;70.00;;;;;;4119162;28;20042;-86
2022/04/05 02:25:03;;;;;;;14.23;1.58;;;3.30;70.30;;;;;;4119287;28;20023;-85
2022/04/05 02:27:04;;;;;;;18.90;2.00;;;3.30;70.40;;;;;;4115751;28;20525;-86
2022/04/05 02:29:06;;;;;;;18.80;2.20;;;3.20;70.50;;;;;;4119812;28;20031;-85
2022/04/05 02:31:07;;;;;;;15.85;2.03;;;3.20;70.30;;;;;;4118779;28;20303;-86
2022/04/05 02:33:08;;;;;;;16.90;1.95;;;3.20;70.30;;;;;;4120568;28;20042;-85
2022/04/05 02:35:10;;;;;;;18.48;1.58;;;3.30;70.40;;;;;;4118778;28;20031;-86
2022/04/05 02:37:11;;;;;;;12.48;2.03;;;3.20;70.20;;;;;;4107681;28;20121;-85
2022/04/05 02:39:12;;;;;;;18.02;1.83;;;3.20;70.20;;;;;;4117915;28;20065;-85
2022/04/05 02:41:13;;;;;;;20.90;1.98;;;3.20;70.10;;;;;;4117827;28;20038;-86
2022/04/05 02:43:13;;;;;;;22.58;2.15;;;3.10;69.90;;;;;;4116465;28;20041;-86
2022/04/05 02:45:14;;;;;;;28.80;2.47;;;3.20;70.00;;;;;;4118689;28;20083;-84
2022/04/05 02:47:15;;;;;;;16.42;2.10;;;3.20;69.90;;;;;;4108866;28;20023;-85
2022/04/05 02:49:15;;;;;;;16.27;1.70;;;3.20;69.80;;;;;;4118649;28;20437;-85
2022/04/05 02:51:16;;;;;;;21.75;2.65;;;3.20;69.80;;;;;;4130720;28;20030;-85
2022/04/05 02:53:18;;;;;;;11.40;2.15;;;3.20;70.20;;;;;;4119145;28;20682;-85
2022/04/05 02:55:19;;;;;;;23.85;2.58;;;3.20;69.70;;;;;;4122209;28;20584;-85
2022/04/05 02:57:20;;;;;;;20.27;2.25;;;3.20;69.60;;;;;;4117735;28;21009;-86
2022/04/05 02:59:20;;;;;;;15.55;2.17;;;3.20;69.50;;;;;;4122123;28;20031;-85
2022/04/05 03:01:21;;;;;;;19.58;2.90;;;3.10;69.30;;;;;;4121152;28;20552;-86
2022/04/05 03:03:22;;;;;;;17.98;1.90;;;3.20;69.30;;;;;;4113356;28;20165;-86
2022/04/05 03:05:23;;;;;;;30.25;3.13;;;3.10;69.10;;;;;;4102257;28;20481;-85
2022/04/05 03:07:23;;;;;;;13.40;2.30;;;3.20;69.10;;;;;;4114279;28;20121;-85
2022/04/05 03:09:24;;;;;;;16.30;2.05;;;3.20;69.10;;;;;;4115865;28;20074;-85
2022/04/05 03:11:26;;;;;;;26.63;3.28;;;3.10;68.90;;;;;;4119627;28;20088;-85
2022/04/05 03:13:26;;;;;;;15.82;1.70;;;3.20;68.80;;;;;;4117523;28;20049;-85
2022/04/05 03:15:27;;;;;;;18.42;1.92;;;3.10;68.60;;;;;;4118581;28;20042;-85
2022/04/05 03:17:28;;;;;;;21.65;2.33;;;3.10;68.30;;;;;;4119141;28;20034;-85
2022/04/05 03:19:28;;;;;;;16.85;1.88;;;3.10;68.40;;;;;;4118592;28;20026;-85
2022/04/05 03:21:29;;;;;;;23.17;2.13;;;3.20;68.30;;;;;;4120706;28;20045;-85
2022/04/05 03:23:30;;;;;;;15.20;1.80;;;3.10;68.20;;;;;;4119072;28;20376;-86
2022/04/05 03:25:30;;;;;;;12.73;1.80;;;3.10;68.00;;;;;;4104783;28;20035;-85
2022/04/05 03:27:31;;;;;;;21.42;3.17;;;3.10;68.10;;;;;;4120908;28;20031;-86
2022/04/05 03:29:32;;;;;;;25.55;2.85;;;3.10;67.80;;;;;;4121056;28;20030;-86
2022/04/05 03:31:32;;;;;;;16.40;2.10;;;3.10;67.60;;;;;;4117925;28;20050;-84
2022/04/05 03:33:33;;;;;;;21.60;2.08;;;3.00;67.20;;;;;;4121117;28;20039;-85
2022/04/05 03:35:34;;;;;;;11.60;1.95;;;3.00;67.20;;;;;;4122500;28;20027;-85
2022/04/05 03:37:35;;;;;;;13.07;2.25;;;3.00;67.80;;;;;;4104724;28;20054;-84
2022/04/05 03:39:35;;;;;;;18.58;2.45;;;3.10;67.10;;;;;;4122244;28;20166;-85
2022/04/05 03:41:37;;;;;;;18.58;2.15;;;3.00;66.70;;;;;;4123436;28;20030;-86
2022/04/05 03:43:37;;;;;;;20.85;2.10;;;3.00;66.60;;;;;;4121294;28;20042;-85
2022/04/05 03:45:39;;;;;;;24.73;2.22;;;3.00;66.60;;;;;;4120642;28;20037;-85
2022/04/05 03:47:40;;;;;;;19.88;2.85;;;3.00;66.50;;;;;;4121232;28;20518;-85
2022/04/05 03:49:41;;;;;;;16.98;2.28;;;3.00;66.20;;;;;;4121604;28;20046;-85
2022/04/05 03:51:42;;;;;;;19.60;2.10;;;3.00;65.80;;;;;;4115922;28;20611;-85
2022/04/05 03:53:42;;;;;;;15.32;2.03;;;3.00;65.80;;;;;;4117955;28;20116;-86
2022/04/05 03:55:43;;;;;;;12.45;2.05;;;3.00;65.80;;;;;;4133819;28;20030;-86
2022/04/05 03:57:43;;;;;;;17.02;2.03;;;3.00;65.80;;;;;;4121602;28;20453;-85
2022/04/05 03:59:44;;;;;;;19.95;2.72;;;3.00;65.60;;;;;;4104520;28;20027;-85
2022/04/05 04:01:45;;;;;;;21.75;1.88;;;3.00;65.50;;;;;;4121142;28;20095;-85
2022/04/05 04:03:46;;;;;;;21.27;2.22;;;3.00;65.10;;;;;;4116227;28;20146;-86
2022/04/05 04:05:47;;;;;;;18.02;1.85;;;3.10;64.80;;;;;;4115363;28;20034;-86
2022/04/05 04:07:50;;;;;;;21.75;2.05;;;3.00;64.90;;;;;;4115256;28;20413;-85
2022/04/05 04:09:51;;;;;;;13.18;1.83;;;3.00;64.90;;;;;;4120966;28;20291;-86
2022/04/05 04:11:52;;;;;;;18.95;2.45;;;3.10;64.90;;;;;;4119739;28;20042;-87
2022/04/05 04:13:53;;;;;;;18.25;1.85;;;3.00;64.50;;;;;;4120699;28;20137;-87
2022/04/05 04:15:54;;;;;;;25.73;2.05;;;3.00;64.60;;;;;;4122349;28;20026;-86
2022/04/05 04:17:55;;;;;;;13.02;1.70;;;3.00;64.50;;;;;;4130009;28;20014;-86
2022/04/05 04:19:55;;;;;;;14.18;1.52;;;3.00;64.50;;;;;;4120659;28;20061;-86
2022/04/05 04:21:56;;;;;;;16.38;2.28;;;3.00;64.20;;;;;;4116454;28;20110;-87
2022/04/05 04:23:57;;;;;;;15.27;2.08;;;3.00;64.20;;;;;;4129812;28;20046;-86
2022/04/05 04:25:58;;;;;;;14.20;1.42;;;3.00;64.20;;;;;;4114793;28;20026;-85
2022/04/05 04:27:58;;;;;;;14.63;1.85;;;3.00;64.10;;;;;;4118677;28;20086;-86
2022/04/05 04:29:59;;;;;;;14.32;1.73;;;3.00;64.10;;;;;;4104579;28;20410;-86
2022/04/05 04:32:00;;;;;;;15.80;1.98;;;3.10;64.30;;;;;;4115276;28;20027;-86
2022/04/05 04:34:01;;;;;;;20.40;1.85;;;3.10;64.20;;;;;;4118813;28;20038;-85
2022/04/05 04:36:02;;;;;;;12.70;1.73;;;3.00;64.90;;;;;;4122808;28;20283;-85
2022/04/05 04:38:03;;;;;;;9.77;1.70;;;3.00;64.20;;;;;;4116636;28;20135;-86
2022/04/05 04:40:04;;;;;;;19.45;1.80;;;3.00;64.30;;;;;;4106343;28;20042;-86
2022/04/05 04:42:06;;;;;;;12.20;1.83;;;3.00;64.30;;;;;;4116602;28;20030;-86
2022/04/05 04:44:06;;;;;;;17.33;2.03;;;3.00;64.40;;;;;;4131538;28;20135;-86
2022/04/05 04:46:07;;;;;;;17.85;1.65;;;3.00;64.40;;;;;;4113335;28;20057;-85
2022/04/05 04:48:08;;;;;;;17.42;1.35;;;2.90;64.20;;;;;;4121594;28;20092;-85
2022/04/05 04:50:12;;;;;;;16.85;1.45;;;3.00;64.50;;;;;;4116081;28;20108;-86
2022/04/05 04:52:13;;;;;;;17.20;1.30;;;3.00;64.50;;;;;;4119625;28;20490;-85
2022/04/05 04:54:14;;;;;;;8.82;1.30;;;2.90;64.50;;;;;;4118769;28;20053;-85
2022/04/05 04:56:15;;;;;;;11.45;1.50;;;2.90;64.50;;;;;;4120267;28;20112;-86
2022/04/05 04:58:18;;;;;;;21.50;1.95;;;2.90;64.70;;;;;;4124455;28;20050;-86
2022/04/05 05:00:19;;;;;;;19.85;1.83;;;2.80;64.70;;;;;;4110349;28;20094;-85
2022/04/05 05:02:23;;;;;;;16.20;1.80;;;2.90;64.90;;;;;;4106935;28;20114;-86
2022/04/05 05:04:23;;;;;;;15.63;1.52;;;2.90;65.00;;;;;;4136759;28;20044;-85
2022/04/05 05:06:24;;;;;;;13.52;1.73;;;2.90;65.20;;;;;;4104979;28;20026;-86
2022/04/05 05:08:25;;;;;;;15.23;1.67;;;2.90;66.00;;;;;;4121799;28;20026;-85
2022/04/05 05:10:26;;;;;;;12.98;1.67;;;2.90;65.40;;;;;;4122918;28;20022;-85
2022/04/05 05:12:26;;;;;;;16.38;1.90;;;2.90;65.60;;;;;;4122682;28;20031;-86
2022/04/05 05:14:27;;;;;;;17.10;1.63;;;2.90;65.80;;;;;;4113873;28;20027;-86
2022/04/05 05:16:28;;;;;;;20.50;1.90;;;3.00;66.00;;;;;;4119203;28;20054;-86
2022/04/05 05:18:29;;;;;;;19.38;2.00;;;3.00;66.20;;;;;;4123857;28;20037;-86
2022/04/05 05:20:30;;;;;;;17.85;1.67;;;3.00;66.30;;;;;;4121708;28;20062;-86
2022/04/05 05:22:31;;;;;;;17.58;1.38;;;3.00;66.40;;;;;;4119940;28;20395;-86
2022/04/05 05:24:33;;;;;;;15.15;1.95;;;3.10;66.50;;;;;;4114779;28;20030;-86
2022/04/05 05:26:34;;;;;;;13.05;1.52;;;3.10;66.60;;;;;;4119364;28;20117;-86
2022/04/05 05:28:34;;;;;;;18.52;2.05;;;3.10;66.60;;;;;;4120610;28;20037;-86
2022/04/05 05:30:35;;;;;;;12.10;1.65;;;3.10;66.50;;;;;;4118384;28;20096;-85
2022/04/05 05:32:46;;;;;;;12.02;1.73;;;3.20;66.50;;;;;;4121424;28;20026;-87
2022/04/05 05:34:47;;;;;;;12.75;1.63;;;3.20;66.60;;;;;;4135150;28;20030;-87
2022/04/05 05:36:48;;;;;;;12.15;1.70;;;3.20;66.90;;;;;;4127919;28;20036;-85
2022/04/05 05:38:48;;;;;;;14.85;1.77;;;3.20;67.20;;;;;;4126634;28;20094;-86
2022/04/05 05:40:49;;;;;;;9.07;1.73;;;3.20;67.20;;;;;;4115837;28;20232;-85
2022/04/05 05:42:59;;;;;;;8.43;1.33;;;3.20;67.30;;;;;;4134516;28;20070;-86
2022/04/05 05:45:00;;;;;;;16.38;1.60;;;3.20;67.20;;;;;;4112073;28;20526;-85
2022/04/05 05:47:03;;;;;;;9.30;1.38;;;3.20;67.30;;;;;;4118156;28;20034;-86
2022/04/05 05:49:03;;;;;;;16.45;1.50;;;3.20;67.40;;;;;;4103361;28;20028;-86
2022/04/05 05:51:05;;;;;;;12.63;1.30;;;3.20;67.70;;;;;;4116570;28;20101;-85
2022/04/05 05:53:06;;;;;;;13.00;1.50;;;3.20;67.90;;;;;;4107328;28;20112;-85
2022/04/05 05:55:08;;;;;;;15.23;1.80;;;3.20;68.30;;;;;;4125744;28;20038;-86
2022/04/05 05:57:09;;;;;;;12.68;1.42;;;3.20;69.60;;;;;;4101568;28;20506;-85
2022/04/05 05:59:10;;;;;;;14.13;1.50;;;3.20;70.30;;;;;;4108047;28;20057;-86
2022/04/05 06:01:10;;;;;;;16.00;1.52;;;3.20;69.90;;;;;;4122051;28;20055;-86
2022/04/05 06:03:11;;;;;;;7.72;1.33;;;3.20;69.90;;;;;;4125172;28;20039;-86
2022/04/05 06:05:12;;;;;;;12.80;1.67;;;3.20;70.20;;;;;;4116955;28;20066;-86
2022/04/05 06:07:13;;;;;;;6.38;0.43;;;3.10;70.50;;;;;;4117161;28;20042;-86
2022/04/05 06:09:13;;;;;;;10.20;1.13;;;3.10;70.80;;;;;;4120966;28;20565;-86
2022/04/05 06:11:14;;;;;;;7.38;0.88;;;3.10;70.70;;;;;;4119434;28;20104;-86
2022/04/05 06:13:15;;;;;;;7.40;0.90;;;3.10;70.50;;;;;;4112215;28;20039;-87
2022/04/05 06:15:17;;;;;;;4.00;1.00;;;3.10;70.30;;;;;;4101891;28;20117;-87
2022/04/05 06:17:18;;;;;;;6.07;0.80;;;3.10;70.20;;;;;;4117541;28;20034;-86
2022/04/05 06:19:19;;;;;;;6.38;0.80;;;3.10;70.30;;;;;;4125873;28;20535;-88
2022/04/05 06:21:19;;;;;;;8.90;0.90;;;3.10;70.40;;;;;;4125305;28;20049;-87
2022/04/05 06:23:20;;;;;;;7.93;1.05;;;3.10;70.60;;;;;;4119549;28;20121;-88
2022/04/05 06:25:29;;;;;;;9.30;1.00;;;3.10;70.80;;;;;;4124241;28;20030;-88
2022/04/05 06:27:29;;;;;;;5.00;0.85;;;3.10;70.80;;;;;;4133778;28;20045;-87
2022/04/05 06:29:30;;;;;;;11.77;1.27;;;3.10;70.80;;;;;;4115674;28;20023;-87
2022/04/05 06:31:31;;;;;;;10.20;0.95;;;3.10;71.00;;;;;;4111384;28;20039;-87
2022/04/05 06:33:31;;;;;;;7.35;0.73;;;3.10;71.40;;;;;;4121823;28;20054;-88
2022/04/05 06:35:32;;;;;;;11.45;1.08;;;3.20;71.80;;;;;;4123792;28;20544;-87
2022/04/05 06:37:35;;;;;;;10.73;1.60;;;3.20;71.70;;;;;;4129414;28;20482;-88
2022/04/05 06:39:36;;;;;;;12.73;1.13;;;3.30;71.70;;;;;;4124702;28;20110;-88
2022/04/05 06:41:39;;;;;;;11.13;1.38;;;3.30;71.70;;;;;;4126931;28;20387;-87
2022/04/05 06:43:40;;;;;;;12.18;1.02;;;3.40;71.70;;;;;;4120197;28;20047;-87
2022/04/05 06:45:44;;;;;;;13.23;1.90;;;3.50;71.70;;;;;;4120379;28;20034;-87
2022/04/05 06:47:48;;;;;;;10.25;1.10;;;3.50;71.60;;;;;;4131684;28;20106;-88
2022/04/05 06:49:48;;;;;;;9.43;1.45;;;3.50;71.70;;;;;;4128880;28;20037;-87
2022/04/05 06:51:49;;;;;;;12.02;1.50;;;3.50;71.70;;;;;;4126443;28;20437;-85
2022/04/05 06:53:50;;;;;;;8.52;0.90;;;3.50;71.40;;;;;;4141503;28;20108;-87
2022/04/05 06:55:50;;;;;;;7.97;0.90;;;3.60;71.30;;;;;;4131208;28;20031;-86
2022/04/05 06:57:52;;;;;;;14.95;1.75;;;3.60;71.20;;;;;;4139836;28;20146;-86
2022/04/05 06:59:53;;;;;;;7.65;1.10;;;3.70;71.10;;;;;;4121392;28;20034;-86
2022/04/05 07:01:53;;;;;;;8.88;1.10;;;3.70;70.80;;;;;;4126265;28;20044;-86
2022/04/05 07:03:54;;;;;;;15.05;1.63;;;3.70;70.60;;;;;;4125489;28;20019;-87
2022/04/05 07:05:58;;;;;;;12.73;1.20;;;3.80;70.50;;;;;;4127815;28;20034;-86
2022/04/05 07:07:59;;;;;;;20.23;1.23;;;3.80;70.40;;;;;;4123705;28;20423;-86
2022/04/05 07:10:00;;;;;;;17.17;1.38;;;3.80;70.30;;;;;;4120528;28;20022;-86
2022/04/05 07:12:00;;;;;;;9.48;1.08;;;3.80;70.20;;;;;;4120111;28;20085;-86
2022/04/05 07:14:01;;;;;;;14.35;1.13;;;3.80;70.40;;;;;;4120148;28;20212;-86
2022/04/05 07:16:03;;;;;;;12.10;1.55;;;3.80;70.50;;;;;;4120863;28;20611;-87
2022/04/05 07:18:04;;;;;;;10.23;1.20;;;3.90;70.70;;;;;;4117110;28;20023;-86
2022/04/05 07:20:09;;;;;;;11.93;1.55;;;3.90;70.40;;;;;;4123085;28;20078;-87
2022/04/05 07:22:10;;;;;;;10.82;1.20;;;4.00;70.60;;;;;;4108764;28;20450;-87
2022/04/05 07:24:11;;;;;;;5.95;1.05;;;4.10;70.60;;;;;;4119186;28;20118;-86
2022/04/05 07:26:11;;;;;;;10.05;1.13;;;4.20;70.80;;;;;;4120211;28;20048;-86
2022/04/05 07:28:12;;;;;;;8.25;1.25;;;4.20;70.80;;;;;;4124431;28;20034;-86
2022/04/05 07:30:13;;;;;;;9.35;1.38;;;4.30;70.70;;;;;;4121460;28;20038;-88
2022/04/05 07:32:14;;;;;;;9.98;1.38;;;4.30;70.00;;;;;;4106759;28;20122;-88
2022/04/05 07:34:15;;;;;;;17.67;1.30;;;4.40;69.70;;;;;;4122195;28;20038;-86
2022/04/05 07:36:16;;;;;;;11.15;1.00;;;4.50;69.60;;;;;;4122052;28;20023;-86
2022/04/05 07:38:17;;;;;;;14.30;1.30;;;4.50;69.50;;;;;;4117500;28;20300;-87
2022/04/05 07:40:18;;;;;;;13.57;1.40;;;4.50;69.60;;;;;;4127336;28;20061;-88
2022/04/05 07:42:19;;;;;;;12.30;1.30;;;4.50;69.70;;;;;;4120432;28;20035;-88
2022/04/05 07:44:20;;;;;;;10.90;1.45;;;4.60;69.90;;;;;;4122708;28;20153;-85
2022/04/05 07:46:21;;;;;;;6.88;1.15;;;4.60;69.50;;;;;;4119332;28;20490;-86
2022/04/05 07:48:23;;;;;;;11.98;1.25;;;4.60;69.30;;;;;;4124235;28;20486;-87
2022/04/05 07:50:24;;;;;;;8.27;1.00;;;4.70;69.40;;;;;;4119684;28;20423;-87
2022/04/05 07:52:24;;;;;;;19.30;2.25;;;4.70;69.60;;;;;;4120194;28;20057;-87
2022/04/05 07:54:25;;;;;;;7.85;1.05;;;4.70;69.30;;;;;;4110190;28;20037;-87
2022/04/05 07:56:26;;;;;;;8.40;1.00;;;4.80;69.60;;;;;;4120711;28;20042;-86
2022/04/05 07:58:26;;;;;;;7.15;1.20;;;4.80;70.40;;;;;;4134391;28;20109;-87
2022/04/05 08:00:28;;;;;;;6.13;1.20;;;4.80;69.30;;;;;;4112171;28;20033;-86
2022/04/05 08:02:28;;;;;;;9.45;1.20;;;4.90;69.60;;;;;;4118978;28;20033;-87
2022/04/05 08:04:29;;;;;;;10.32;1.33;;;5.00;69.70;;;;;;4122189;28;20105;-87
2022/04/05 08:06:31;;;;;;;8.10;0.90;;;5.00;69.40;;;;;;4117778;28;20033;-87
2022/04/05 08:08:33;;;;;;;8.15;1.00;;;5.10;69.40;;;;;;4125236;28;20038;-87
2022/04/05 08:10:35;;;;;;;8.25;1.27;;;5.20;69.20;;;;;;4123790;28;20113;-86
2022/04/05 08:12:54;;;;;;;7.63;1.23;;;5.20;68.60;;;;;;4125306;28;20446;-86
2022/04/05 08:14:54;;;;;;;8.75;1.00;;;5.40;68.30;;;;;;4116974;28;20030;-86
2022/04/05 08:17:01;;;;;;;6.88;1.33;;;5.40;68.50;;;;;;4120996;28;20093;-85
2022/04/05 08:19:05;;;;;;;9.88;1.02;;;5.40;67.10;;;;;;4130708;28;20018;-88
2022/04/05 08:21:06;;;;;;;8.90;1.02;;;5.50;67.50;;;;;;4121782;28;20405;-87
2022/04/05 08:23:08;;;;;;;9.00;1.02;;;5.60;66.10;;;;;;4122297;28;20067;-86
2022/04/05 08:25:14;;;;;;;9.18;0.90;;;5.60;64.30;;;;;;4122196;28;20021;-88
2022/04/05 08:27:15;;;;;;;10.15;0.80;;;5.70;64.60;;;;;;4119650;28;20086;-87
2022/04/05 08:29:15;;;;;;;5.85;0.70;;;5.70;64.60;;;;;;4120127;28;20437;-87
2022/04/05 08:31:17;;;;;;;3.85;1.00;;;5.80;63.90;;;;;;4123355;28;20595;-86
2022/04/05 08:33:18;;;;;;;9.23;1.00;;;5.80;63.20;;;;;;4115299;28;20066;-86
2022/04/05 08:35:21;;;;;;;8.02;0.90;;;5.80;61.90;;;;;;4117226;28;20438;-85
2022/04/05 08:37:24;;;;;;;4.67;0.77;;;5.90;61.30;;;;;;4139003;28;20030;-85
2022/04/05 08:39:28;;;;;;;9.07;0.70;;;5.90;61.00;;;;;;4133846;28;20018;-84
2022/04/05 08:41:32;;;;;;;;;;;6.00;61.20;;;;;;4120198;28;20023;-85
2022/04/05 08:43:34;;;;;;;5.70;0.95;;;6.00;60.90;;;;;;4123586;28;19918;-85
2022/04/05 08:45:40;;;;;;;9.40;1.27;;;6.10;60.80;;;;;;4119790;28;20037;-85
2022/04/05 08:47:48;;;;;;;5.13;1.00;;;6.20;60.80;;;;;;4120539;28;20109;-89
2022/04/05 08:49:49;;;;;;;11.48;1.15;;;6.20;59.80;;;;;;4118003;28;20026;-86
2022/04/05 08:51:50;;;;;;;13.15;1.40;;;6.20;59.50;;;;;;4104711;28;20055;-85
2022/04/05 08:53:50;;;;;;;7.03;1.10;;;6.30;58.80;;;;;;4123490;28;20026;-87
2022/04/05 08:55:51;;;;;;;8.98;1.02;;;6.30;59.60;;;;;;4125225;28;20030;-85
2022/04/05 08:57:52;;;;;;;8.05;1.05;;;6.30;58.90;;;;;;4116705;28;20057;-86
2022/04/05 08:59:53;;;;;;;8.82;0.73;;;6.40;58.20;;;;;;4122302;28;20040;-86
2022/04/05 09:01:54;;;;;;;7.32;0.88;;;6.40;58.50;;;;;;4105786;28;20129;-85
2022/04/05 09:03:57;;;;;;;8.43;0.85;;;6.30;59.20;;;;;;4118968;28;20027;-87
2022/04/05 09:05:58;;;;;;;5.97;0.57;;;6.20;58.80;;;;;;4113127;28;20030;-88
2022/04/05 09:08:31;;;;;;;4.80;0.28;;;6.10;59.30;;;;;;4100571;28;20027;-87
2022/04/05 09:10:32;;;;;;;1.33;0.40;;;5.90;59.70;;;;;;4117118;28;20034;-88
2022/04/05 09:12:46;;;;;;;3.15;0.40;;;5.80;59.80;;;;;;4123713;28;20034;-88
2022/04/05 09:14:47;;;;;;;4.85;0.60;;;5.70;60.50;;;;;;4125135;28;20042;-90
2022/04/05 09:17:07;;;;;;;3.10;0.60;;;5.60;62.00;;;;;;4120589;28;20035;-89
2022/04/05 09:19:14;;;;;;;6.05;0.73;;;5.50;63.20;;;;;;4128363;28;20066;-89
2022/04/05 09:21:15;;;;;;;10.18;1.25;;;5.50;64.10;;;;;;4128097;28;20061;-89
2022/04/05 09:23:27;;;;;;;6.38;0.88;;;5.50;65.00;;;;;;4122339;28;20031;-89
2022/04/05 09:25:27;;;;;;;9.15;0.90;;;5.50;65.50;;;;;;4124265;28;20563;-88
2022/04/05 09:27:42;;;;;;;10.98;1.10;;;5.60;65.80;;;;;;4131837;28;20125;-89
2022/04/05 09:29:49;;;;;;;10.35;1.30;;;5.50;66.00;;;;;;4135673;28;20570;-88
2022/04/05 09:31:50;;;;;;;14.52;1.67;;;5.60;65.80;;;;;;4130621;28;20026;-89
2022/04/05 09:34:06;;;;;;;5.75;1.08;;;5.70;64.00;;;;;;4124760;28;20073;-89
2022/04/05 09:36:11;;;;;;;8.82;1.02;;;5.70;62.90;;;;;;4122952;28;20049;-88
2022/04/05 09:38:17;;;;;;;8.77;1.00;;;5.70;63.20;;;;;;4117791;28;20030;-90
2022/04/05 09:40:22;;;;;;;8.95;1.08;;;5.80;61.90;;;;;;4124816;28;20066;-89
2022/04/05 09:42:22;;;;;;;3.28;0.90;;;5.90;62.30;;;;;;4096774;28;20066;-89
2022/04/05 09:44:26;;;;;;;6.35;0.88;;;6.00;61.60;;;;;;4122561;28;20026;-88
2022/04/05 09:46:33;;;;;;;8.63;1.17;;;6.00;60.50;;;;;;4113762;28;20046;-87
2022/04/05 09:48:36;;;;;;;6.10;0.93;;;6.10;58.90;;;;;;4090421;28;20061;-88
2022/04/05 09:51:14;;;;;;;2.50;0.95;;;6.10;59.10;;;;;;4108858;28;20031;-88
2022/04/05 09:53:15;;;;;;;8.60;0.65;;;6.10;58.20;;;;;;4119621;28;20031;-86
2022/04/05 09:55:16;;;;;;;4.65;0.52;;;6.10;56.20;;;;;;4105240;28;20113;-86
2022/04/05 09:57:31;;;;;;;7.53;1.23;;;6.10;55.50;;;;;;4102844;28;20380;-85
2022/04/05 09:59:43;;;;;;;7.30;0.85;;;6.20;55.90;;;;;;4120386;28;20030;-85
2022/04/05 10:01:46;;;;;;;6.70;0.93;;;6.20;54.70;;;;;;4107580;28;20031;-85
2022/04/05 10:03:56;;;;;;;2.88;0.57;;;6.20;54.80;;;;;;4110432;28;20023;-85
2022/04/05 10:05:57;;;;;;;6.25;0.82;;;6.30;55.50;;;;;;4108927;28;20050;-86
2022/04/05 10:07:58;;;;;;;13.00;0.85;;;6.30;55.50;;;;;;4104255;28;20050;-86
2022/04/05 10:10:02;;;;;;;8.18;1.00;;;6.30;54.70;;;;;;4103792;28;21798;-86
2022/04/05 10:12:09;;;;;;;6.47;1.25;;;6.30;54.50;;;;;;4110964;28;20466;-90
2022/04/05 10:14:20;;;;;;;2.55;0.50;;;6.30;54.30;;;;;;4111227;28;20030;-90
2022/04/05 10:16:30;;;;;;;7.72;0.95;;;6.30;54.00;;;;;;4108835;28;20118;-90
2022/04/05 10:18:35;;;;;;;5.93;0.52;;;6.30;54.30;;;;;;4111302;28;20034;-88
2022/04/05 10:20:41;;;;;;;6.00;0.85;;;6.30;54.50;;;;;;4111798;28;20454;-89
2022/04/05 10:22:45;;;;;;;9.07;1.00;;;6.30;55.00;;;;;;4110960;28;20033;-91
2022/04/05 10:24:52;;;;;;;5.03;0.60;;;6.20;55.10;;;;;;4114311;28;20015;-90
2022/04/05 10:27:06;;;;;;;4.18;0.68;;;6.30;55.20;;;;;;4103536;28;20122;-92
2022/04/05 10:29:15;;;;;;;4.25;0.70;;;6.20;55.30;;;;;;4097971;28;20562;-93
2022/04/05 10:31:25;;;;;;;7.78;1.00;;;6.30;55.50;;;;;;4100429;28;20043;-93
2022/04/05 10:33:45;;;;;;;9.73;0.73;;;6.20;55.60;;;;;;4110135;28;20026;-93
2022/04/05 10:36:00;;;;;;;4.88;0.80;;;6.10;55.20;;;;;;4130297;28;20038;-91
2022/04/05 10:38:34;;;;;;;11.23;1.00;;;6.10;55.60;;;;;;4111698;28;20038;-91
2022/04/05 10:41:03;;;;;;;4.40;0.60;;;6.00;56.60;;;;;;4106862;28;20488;-93